Aérodrome :
LOGIN :

S'inscrire | Disclaimer

   EN    FR    IT 

 










Légende :    VFR   VFR Marginal   IFR   IFR Intensif   IFR Très Intensif
Visi : 
Plafond : 
>= 8 km
>= 3000ft
5 à 8 km
1000 à 3000 ft
1500m à 5 km
500 à 1000 ft
800 à 1500m
200 à 500 ft
< 800m
< 200 ft
Symboles :   Orages  Brouillard  Fortes neiges  Fortes précipitations  Vent > 20 kt
SIGMETs :   Divers  Orages  Givrage  Turbulence  Onde Orograph.  Cendres Volcan.







- Altitude de l'aérodrome : 13 ft
- Code IATA : OST


EBOS - Oostend bruges Int.

DERNIER METAR :
  • 232120Z 22018KT 9999 FEW007 BKN011 BKN017 12/10 Q1017 TEMPO 20020G30KT

METARs EXPIRÉS :
  • 232050Z 22012KT 9999 FEW003 BKN012 BKN017 11/09 Q1017 TEMPO 20020G30KT
  • 232020Z 23019KT 9999 FEW003 SCT012 BKN017 12/10 Q1017 REDZ TEMPO 20017G27KT
  • 231950Z 21015KT 3200 -DZ BR BKN003 10/09 Q1017 TEMPO 20017G27KT 2000 DZ BR SCT004 BKN007
  • 231920Z 20016KT 3200 DZ BR BKN003 10/09 Q1017 TEMPO 20017G27KT 2000 DZ BR SCT004 BKN007
  • 231850Z 20017KT 3200 -RADZ BKN004 10/09 Q1017 BECMG 20017G27KT

TAF TAF EBOS
Valide du 23 à 18h jusqu'au 25 à 00h UTC


231703Z 2318/2424 20015G25KT 9999 SCT007 BKN011
TEMPO 2318/2403 3500 -DZ BR SCT004 BKN007
PROB30
TEMPO 2318/2401 2000 BKN004
BECMG 2401/2403 SCT015 BKN030
BECMG 2406/2408 20020G40KT
TEMPO 2415/2422 4000 RA SHRA SCT010 BKN014
BECMG 2416/2418 22015G25KT
Pas de NOTAMs connus pour ce terrain.



MET'MAP, la Météo Aéronautique d'un coup d'oeil ! - Copyright ORBIFLY Décembre 2007 - Disclaimer

ORBIFLY MET'MAP TEAM :

Programmation & Développement : Alexandra Zaïnal
Conception & Développement : Baudouin d'Aumeries
Co-Programmation & Développement : Marc-Olivier Méhu
Soutien technique & logistique : Manuel Goepfert

Contact : metmap@orbifly.com




SOURCES & CREDITS :

   NOAA